createdAt,value
2024-01-07T00:27:33.470Z,12.8
2024-01-07T00:57:33.986Z,12.8
2024-01-07T01:27:34.547Z,12.7
2024-01-07T01:57:35.081Z,12.7
2024-01-07T02:27:35.586Z,12.6
2024-01-07T02:57:36.097Z,12.8
2024-01-07T03:27:36.613Z,12.7
2024-01-07T03:57:47.419Z,12.7
2024-01-07T04:27:47.973Z,12.7
2024-01-07T04:57:58.408Z,12.7
2024-01-07T05:27:59.228Z,12.8
2024-01-07T05:58:00.060Z,12.7
2024-01-07T06:28:00.674Z,12.6
2024-01-07T06:58:01.676Z,12.6
2024-01-07T07:28:02.189Z,12.6
2024-01-07T08:28:03.276Z,12.6
2024-01-07T08:58:03.784Z,12.6
2024-01-07T09:28:04.305Z,12.6
2024-01-07T10:28:15.727Z,12.5
2024-01-07T10:58:16.353Z,12.5
2024-01-07T11:28:27.311Z,12.5
2024-01-07T11:58:27.791Z,12.5
2024-01-07T12:28:28.325Z,12.5
2024-01-07T12:58:28.874Z,12.5
2024-01-07T13:28:29.708Z,12.5
2024-01-07T13:58:30.340Z,12.5
2024-01-07T14:28:31.089Z,12.5
2024-01-07T14:58:31.923Z,12.4
2024-01-07T15:28:32.595Z,12.4
2024-01-07T15:58:33.172Z,12.3
2024-01-07T16:28:33.643Z,12.3
2024-01-07T16:58:34.106Z,12.3
2024-01-07T17:28:34.604Z,12.2
2024-01-07T17:58:45.126Z,12.2
2024-01-07T18:28:45.623Z,12.2
2024-01-07T18:58:56.615Z,12.1
2024-01-07T19:28:57.268Z,12.1
2024-01-07T19:58:58.305Z,12
2024-01-07T20:28:58.791Z,12
2024-01-07T21:29:00.692Z,11.9
2024-01-07T21:59:01.158Z,11.9
2024-01-07T22:29:01.747Z,11.8
2024-01-07T22:59:03.433Z,11.8
2024-01-07T23:29:06.840Z,11.7
2024-01-07T23:59:09.326Z,11.7
